createdAt,value
2018-12-09T00:01:22.811Z,7.20
2018-12-09T00:03:55.741Z,7.30
2018-12-09T00:06:28.648Z,7.40
2018-12-09T00:08:59.379Z,7.50
2018-12-09T00:11:30.200Z,7.60
2018-12-09T00:14:01.239Z,7.60
2018-12-09T00:16:31.987Z,7.60
2018-12-09T00:19:02.873Z,7.60
2018-12-09T00:21:34.663Z,7.70
2018-12-09T00:24:05.310Z,7.70
2018-12-09T00:26:36.065Z,7.80
2018-12-09T00:29:06.731Z,7.90
2018-12-09T00:31:37.140Z,7.80
2018-12-09T00:34:08.246Z,7.90
2018-12-09T00:36:38.877Z,7.90
2018-12-09T00:39:09.663Z,7.90
2018-12-09T00:41:40.295Z,7.80
2018-12-09T00:44:10.992Z,7.70
2018-12-09T00:46:41.728Z,7.70
2018-12-09T00:49:12.415Z,7.50
2018-12-09T00:51:43.029Z,7.30
2018-12-09T00:54:13.657Z,7.10
2018-12-09T00:56:44.632Z,6.90
2018-12-09T00:59:15.601Z,6.80
2018-12-09T01:01:46.133Z,6.60
2018-12-09T01:04:16.639Z,6.40
2018-12-09T01:06:47.827Z,6.30
2018-12-09T01:09:18.780Z,6.40
2018-12-09T01:11:49.565Z,6.40
2018-12-09T01:14:20.267Z,6.30
2018-12-09T01:16:50.832Z,6.20
2018-12-09T01:19:21.372Z,6.10
2018-12-09T01:21:52.003Z,5.90
2018-12-09T01:24:22.564Z,5.90
2018-12-09T01:26:53.163Z,5.80
2018-12-09T01:29:23.844Z,5.80
2018-12-09T01:31:54.541Z,5.80
2018-12-09T01:34:25.196Z,5.80
2018-12-09T01:36:55.854Z,5.80
2018-12-09T01:39:26.726Z,5.80
2018-12-09T01:41:57.715Z,5.80
2018-12-09T01:44:28.631Z,5.60
2018-12-09T01:46:59.467Z,5.70
2018-12-09T01:49:30.605Z,5.70
2018-12-09T01:52:01.236Z,5.60
2018-12-09T01:54:33.428Z,5.60
2018-12-09T01:57:04.287Z,5.50
2018-12-09T01:59:34.872Z,5.40
2018-12-09T02:02:06.214Z,5.30
2018-12-09T02:04:36.754Z,5.20
2018-12-09T02:07:07.602Z,5.10
2018-12-09T02:09:38.040Z,5.00
2018-12-09T02:12:09.045Z,5.00
2018-12-09T02:14:39.598Z,4.80
2018-12-09T02:17:10.127Z,4.90
2018-12-09T02:19:40.992Z,4.90
2018-12-09T02:22:11.797Z,4.80
2018-12-09T02:24:42.188Z,4.70
2018-12-09T02:27:13.001Z,4.70
2018-12-09T02:29:49.565Z,4.60
2018-12-09T02:32:20.285Z,4.50
2018-12-09T02:34:53.077Z,4.40
2018-12-09T02:37:23.865Z,4.40
2018-12-09T02:39:54.496Z,4.50
2018-12-09T02:42:31.433Z,4.40
2018-12-09T02:45:02.407Z,4.50
2018-12-09T02:47:34.359Z,4.40
2018-12-09T02:50:04.993Z,4.40
2018-12-09T02:52:35.830Z,4.40
2018-12-09T02:55:07.038Z,4.40
2018-12-09T02:57:37.553Z,4.40
2018-12-09T03:00:08.277Z,4.40
2018-12-09T03:02:40.109Z,4.30
2018-12-09T03:05:10.910Z,4.20
2018-12-09T03:07:41.495Z,4.00
2018-12-09T03:10:12.206Z,4.00
2018-12-09T03:12:42.832Z,3.90
2018-12-09T03:15:13.680Z,3.80
2018-12-09T03:17:44.418Z,3.70
2018-12-09T03:20:15.031Z,3.70
2018-12-09T03:22:45.517Z,3.70
2018-12-09T03:25:16.132Z,3.60
2018-12-09T03:27:46.808Z,3.60
2018-12-09T03:30:17.455Z,3.50
2018-12-09T03:32:48.042Z,3.50
2018-12-09T03:35:18.579Z,3.30
2018-12-09T03:37:49.288Z,3.20
2018-12-09T03:40:19.875Z,3.20
2018-12-09T03:42:50.468Z,3.20
2018-12-09T03:45:21.103Z,3.10
2018-12-09T03:47:51.625Z,3.10
2018-12-09T03:50:22.641Z,3.10
2018-12-09T03:52:53.467Z,3.10
2018-12-09T03:55:23.925Z,3.20
2018-12-09T03:57:54.825Z,3.30
2018-12-09T04:00:25.570Z,3.20
2018-12-09T04:02:56.365Z,3.20
2018-12-09T04:05:26.995Z,3.00
2018-12-09T04:07:58.049Z,3.00
2018-12-09T04:10:29.073Z,3.10
2018-12-09T04:12:59.850Z,3.10
2018-12-09T04:15:32.638Z,3.00
2018-12-09T04:18:05.338Z,3.10
2018-12-09T04:20:36.020Z,3.00
2018-12-09T04:23:06.920Z,3.00
2018-12-09T04:25:37.591Z,3.00
2018-12-09T04:28:08.546Z,3.00
2018-12-09T04:30:39.174Z,3.00
2018-12-09T04:33:10.189Z,3.00
2018-12-09T04:35:40.997Z,3.00
2018-12-09T04:38:11.683Z,3.00
2018-12-09T04:40:42.482Z,3.00
2018-12-09T04:43:12.990Z,2.90
2018-12-09T04:45:44.204Z,2.90
2018-12-09T04:48:14.960Z,2.90
2018-12-09T04:50:45.555Z,2.90
2018-12-09T04:53:16.386Z,2.80
2018-12-09T04:55:47.330Z,2.80
2018-12-09T04:58:18.075Z,2.80
2018-12-09T05:00:58.183Z,2.80
2018-12-09T05:03:28.798Z,3.00
2018-12-09T05:05:59.927Z,3.00
2018-12-09T05:08:30.946Z,2.90
2018-12-09T05:11:01.675Z,2.90
2018-12-09T05:13:32.461Z,2.80
2018-12-09T05:16:03.268Z,2.80
2018-12-09T05:18:34.901Z,2.80
2018-12-09T05:21:05.541Z,2.80
2018-12-09T05:23:36.145Z,2.80
2018-12-09T05:26:06.142Z,2.80
2018-12-09T05:28:37.177Z,2.90
2018-12-09T05:31:07.907Z,2.80
2018-12-09T05:33:38.655Z,2.80
2018-12-09T05:36:09.382Z,2.90
2018-12-09T05:38:40.094Z,2.90
2018-12-09T05:41:10.665Z,2.90
2018-12-09T05:43:41.496Z,3.00
2018-12-09T05:46:12.512Z,3.10
2018-12-09T05:48:43.249Z,3.10
2018-12-09T05:51:14.261Z,3.30
2018-12-09T05:53:44.884Z,3.30
2018-12-09T05:56:15.418Z,3.20
2018-12-09T05:58:46.191Z,3.20
2018-12-09T06:01:17.019Z,3.30
2018-12-09T06:03:47.554Z,3.30
2018-12-09T06:06:18.247Z,3.20
2018-12-09T06:08:49.397Z,3.20
2018-12-09T06:11:19.948Z,3.20
2018-12-09T06:13:50.443Z,3.30
2018-12-09T06:16:21.085Z,3.30
2018-12-09T06:18:51.934Z,3.40
2018-12-09T06:21:22.560Z,3.40
2018-12-09T06:23:53.169Z,3.50
2018-12-09T06:26:23.698Z,3.70
2018-12-09T06:28:54.463Z,3.70
2018-12-09T06:31:25.507Z,3.90
2018-12-09T06:33:56.104Z,3.90
2018-12-09T06:36:26.781Z,4.00
2018-12-09T06:38:57.256Z,4.00
2018-12-09T06:41:28.399Z,4.10
2018-12-09T06:43:59.376Z,4.20
2018-12-09T06:46:29.966Z,4.20
2018-12-09T06:49:00.558Z,4.20
2018-12-09T06:51:31.272Z,4.30
2018-12-09T06:54:02.058Z,4.30
2018-12-09T06:56:32.836Z,4.30
2018-12-09T06:59:03.773Z,4.30
2018-12-09T07:01:34.509Z,4.20
2018-12-09T07:04:07.232Z,4.20
2018-12-09T07:06:38.068Z,4.30
2018-12-09T07:09:09.006Z,4.30
2018-12-09T07:11:39.511Z,4.40
2018-12-09T07:14:10.605Z,4.50
2018-12-09T07:16:41.232Z,4.50
2018-12-09T07:19:12.322Z,4.60
2018-12-09T07:21:43.186Z,4.70
2018-12-09T07:24:14.293Z,5.00
2018-12-09T07:26:45.270Z,5.60
2018-12-09T07:29:15.879Z,6.40
2018-12-09T07:31:46.528Z,7.20
2018-12-09T07:34:17.306Z,7.60
2018-12-09T07:36:48.148Z,8.10
2018-12-09T07:39:18.996Z,8.40
2018-12-09T07:41:50.774Z,8.50
2018-12-09T07:44:21.817Z,8.60
2018-12-09T07:46:52.516Z,8.60
2018-12-09T07:49:23.169Z,8.40
2018-12-09T07:51:53.858Z,8.60
2018-12-09T07:54:24.500Z,9.00
2018-12-09T07:56:55.116Z,9.40
2018-12-09T07:59:25.867Z,9.80
2018-12-09T08:01:56.747Z,10.10
2018-12-09T08:04:27.441Z,10.40
2018-12-09T08:06:58.328Z,10.70
2018-12-09T08:09:29.092Z,11.10
2018-12-09T08:12:00.073Z,11.50
2018-12-09T08:14:31.127Z,12.20
2018-12-09T08:17:02.026Z,12.40
2018-12-09T08:19:32.680Z,13.10
2018-12-09T08:22:03.527Z,13.60
2018-12-09T08:24:34.236Z,13.80
2018-12-09T08:27:04.908Z,13.90
2018-12-09T08:29:35.772Z,14.00
2018-12-09T08:32:06.580Z,14.10
2018-12-09T08:34:37.305Z,14.20
2018-12-09T08:37:07.826Z,14.20
2018-12-09T08:39:38.682Z,14.20
2018-12-09T08:42:09.325Z,14.20
2018-12-09T08:44:39.882Z,14.40
2018-12-09T08:47:10.438Z,14.60
2018-12-09T08:49:40.972Z,14.80
2018-12-09T08:52:11.926Z,15.20
2018-12-09T08:54:42.801Z,15.10
2018-12-09T08:57:13.473Z,15.00
2018-12-09T08:59:44.024Z,15.30
2018-12-09T09:02:14.722Z,15.20
2018-12-09T09:04:45.732Z,14.90
2018-12-09T09:07:16.651Z,14.70
2018-12-09T09:09:47.196Z,14.10
2018-12-09T09:12:17.721Z,13.60
2018-12-09T09:14:48.377Z,13.40
2018-12-09T09:17:19.064Z,13.30
2018-12-09T09:19:49.779Z,13.20
2018-12-09T09:22:20.211Z,13.00
2018-12-09T09:24:50.868Z,12.80
2018-12-09T09:27:21.512Z,12.60
2018-12-09T09:29:52.350Z,12.50
2018-12-09T09:32:23.106Z,12.40
2018-12-09T09:34:54.426Z,12.70
2018-12-09T09:37:25.467Z,12.70
2018-12-09T09:39:56.815Z,12.60
2018-12-09T09:42:27.997Z,12.60
2018-12-09T09:44:58.856Z,12.40
2018-12-09T09:47:29.653Z,12.10
2018-12-09T09:50:00.474Z,11.80
2018-12-09T09:52:31.186Z,12.00
2018-12-09T09:55:02.125Z,12.00
2018-12-09T09:57:32.616Z,12.10
2018-12-09T10:00:03.582Z,12.10
2018-12-09T10:02:34.391Z,12.00
2018-12-09T10:05:12.641Z,12.10
2018-12-09T10:07:43.500Z,12.00
2018-12-09T10:10:14.274Z,12.10
2018-12-09T10:12:45.009Z,11.90
2018-12-09T10:15:16.002Z,11.90
2018-12-09T10:17:46.787Z,11.70
2018-12-09T10:20:17.428Z,11.60
2018-12-09T10:22:48.394Z,11.50
2018-12-09T10:25:19.376Z,11.40
2018-12-09T10:27:49.970Z,11.50
2018-12-09T10:30:20.697Z,11.50
2018-12-09T10:32:51.498Z,11.50
2018-12-09T10:35:23.437Z,11.60
2018-12-09T10:37:54.152Z,11.50
2018-12-09T10:40:25.220Z,11.30
2018-12-09T10:42:55.828Z,11.10
2018-12-09T10:45:26.790Z,10.90
2018-12-09T10:47:57.482Z,10.70
2018-12-09T10:50:28.051Z,10.60
2018-12-09T10:52:59.201Z,10.60
2018-12-09T10:55:29.723Z,10.50
2018-12-09T10:58:00.331Z,10.50
2018-12-09T11:00:36.151Z,10.50
2018-12-09T11:03:06.997Z,10.70
2018-12-09T11:05:37.727Z,10.80
2018-12-09T11:08:08.390Z,10.90
2018-12-09T11:10:38.890Z,10.90
2018-12-09T11:13:09.796Z,10.70
2018-12-09T11:15:40.778Z,10.70
2018-12-09T11:18:11.499Z,10.80
2018-12-09T11:20:42.283Z,10.70
2018-12-09T11:23:13.103Z,10.70
2018-12-09T11:25:44.526Z,10.80
2018-12-09T11:28:15.056Z,10.80
2018-12-09T11:30:45.770Z,11.00
2018-12-09T11:33:16.499Z,11.00
2018-12-09T11:35:47.134Z,11.00
2018-12-09T11:38:17.790Z,11.00
2018-12-09T11:40:48.536Z,11.10
2018-12-09T11:43:19.365Z,11.20
2018-12-09T11:45:50.027Z,11.00
2018-12-09T11:48:20.818Z,11.10
2018-12-09T11:50:51.400Z,11.10
2018-12-09T11:53:22.437Z,11.20
2018-12-09T11:55:53.505Z,11.30
2018-12-09T11:58:24.418Z,11.30
2018-12-09T12:00:54.840Z,11.30
2018-12-09T12:03:25.878Z,11.30
2018-12-09T12:05:56.484Z,11.40
2018-12-09T12:08:27.071Z,11.30
2018-12-09T12:10:57.603Z,11.30
2018-12-09T12:13:29.266Z,11.30
2018-12-09T12:15:59.893Z,11.30
2018-12-09T12:18:30.418Z,11.30
2018-12-09T12:21:01.282Z,11.30
2018-12-09T12:23:32.091Z,11.30
2018-12-09T12:26:03.234Z,11.30
2018-12-09T12:28:34.086Z,11.20
2018-12-09T12:31:04.817Z,11.10
2018-12-09T12:33:35.800Z,11.00
2018-12-09T12:36:06.845Z,10.90
2018-12-09T12:38:37.642Z,10.90
2018-12-09T12:41:08.872Z,10.80
2018-12-09T12:43:40.938Z,10.80
2018-12-09T12:46:11.632Z,10.70
2018-12-09T12:48:42.286Z,10.70
2018-12-09T12:51:12.972Z,10.60
2018-12-09T12:53:43.970Z,10.60
2018-12-09T12:56:14.666Z,10.50
2018-12-09T12:58:45.433Z,10.30
2018-12-09T13:01:16.346Z,10.20
2018-12-09T13:03:47.252Z,10.10
2018-12-09T13:06:18.709Z,9.90
2018-12-09T13:08:49.320Z,9.90
2018-12-09T13:11:19.857Z,9.80
2018-12-09T13:13:50.983Z,9.90
2018-12-09T13:16:21.853Z,10.00
2018-12-09T13:18:52.400Z,9.90
2018-12-09T13:21:23.145Z,9.90
2018-12-09T13:23:53.735Z,9.80
2018-12-09T13:26:24.484Z,9.70
2018-12-09T13:28:55.401Z,9.60
2018-12-09T13:31:26.107Z,9.40
2018-12-09T13:33:56.932Z,9.40
2018-12-09T13:36:27.939Z,9.30
2018-12-09T13:38:59.335Z,9.30
2018-12-09T13:41:30.070Z,9.10
2018-12-09T13:44:00.756Z,9.00
2018-12-09T13:46:31.829Z,8.90
2018-12-09T13:49:02.512Z,8.80
2018-12-09T13:51:34.360Z,8.80
2018-12-09T13:54:05.618Z,8.90
2018-12-09T13:56:36.380Z,8.80
2018-12-09T13:59:07.236Z,8.70
2018-12-09T14:01:37.950Z,8.70
2018-12-09T14:04:08.927Z,8.70
2018-12-09T14:06:39.741Z,8.90
2018-12-09T14:09:10.633Z,8.90
2018-12-09T14:11:41.174Z,9.00
2018-12-09T14:14:11.778Z,9.00
2018-12-09T14:16:42.488Z,8.90
2018-12-09T14:19:13.470Z,8.80
2018-12-09T14:21:44.274Z,8.70
2018-12-09T14:24:14.920Z,8.90
2018-12-09T14:26:45.580Z,9.00
2018-12-09T14:29:16.162Z,9.00
2018-12-09T14:31:47.307Z,8.80
2018-12-09T14:34:18.092Z,8.60
2018-12-09T14:36:48.734Z,8.50
2018-12-09T14:39:19.546Z,8.50
2018-12-09T14:41:50.818Z,8.50
2018-12-09T14:44:21.676Z,8.50
2018-12-09T14:46:52.327Z,8.60
2018-12-09T14:49:24.158Z,8.60
2018-12-09T14:51:54.791Z,8.60
2018-12-09T14:54:25.341Z,8.70
2018-12-09T14:56:55.874Z,8.60
2018-12-09T14:59:26.647Z,8.60
2018-12-09T15:01:57.283Z,8.60
2018-12-09T15:04:28.272Z,8.70
2018-12-09T15:06:59.061Z,8.70
2018-12-09T15:09:30.103Z,8.60
2018-12-09T15:12:01.026Z,8.50
2018-12-09T15:14:31.928Z,8.50
2018-12-09T15:17:02.652Z,8.50
2018-12-09T15:19:33.439Z,8.40
2018-12-09T15:22:04.098Z,8.40
2018-12-09T15:24:41.348Z,8.50
2018-12-09T15:27:07.792Z,8.70
2018-12-09T15:29:38.637Z,8.80
2018-12-09T15:32:10.333Z,8.70
2018-12-09T15:34:40.927Z,8.60
2018-12-09T15:37:11.535Z,8.60
2018-12-09T15:39:42.344Z,8.60
2018-12-09T15:42:13.058Z,8.50
2018-12-09T15:44:43.666Z,8.60
2018-12-09T15:47:14.386Z,8.60
2018-12-09T15:49:45.148Z,8.50
2018-12-09T15:52:15.940Z,8.60
2018-12-09T15:54:46.934Z,8.60
2018-12-09T15:57:17.750Z,8.50
2018-12-09T15:59:48.428Z,8.50
2018-12-09T16:02:19.275Z,8.50
2018-12-09T16:04:50.179Z,8.60
2018-12-09T16:07:20.891Z,8.50
2018-12-09T16:09:51.583Z,8.50
2018-12-09T16:12:22.244Z,8.50
2018-12-09T16:14:53.062Z,8.50
2018-12-09T16:17:24.002Z,8.50
2018-12-09T16:19:55.067Z,8.60
2018-12-09T16:22:25.889Z,8.60
2018-12-09T16:24:56.567Z,8.60
2018-12-09T16:27:28.552Z,8.60
2018-12-09T16:30:02.407Z,8.60
2018-12-09T16:32:33.878Z,8.60
2018-12-09T16:35:05.524Z,8.70
2018-12-09T16:37:37.262Z,8.80
2018-12-09T16:40:08.500Z,8.80
2018-12-09T16:42:39.392Z,8.80
2018-12-09T16:45:10.011Z,8.80
2018-12-09T16:47:40.859Z,8.80
2018-12-09T16:50:11.668Z,8.80
2018-12-09T16:52:42.172Z,8.90
2018-12-09T16:55:12.709Z,8.90
2018-12-09T16:57:43.433Z,8.80
2018-12-09T17:00:14.314Z,8.80
2018-12-09T17:02:45.308Z,8.80
2018-12-09T17:05:16.190Z,8.80
2018-12-09T17:07:46.895Z,8.80
2018-12-09T17:10:17.686Z,8.80
2018-12-09T17:12:48.216Z,8.90
2018-12-09T17:15:19.375Z,8.80
2018-12-09T17:17:50.284Z,8.70
2018-12-09T17:20:21.065Z,8.70
2018-12-09T17:22:51.832Z,8.80
2018-12-09T17:25:22.632Z,8.80
2018-12-09T17:27:53.564Z,8.80
2018-12-09T17:30:24.848Z,8.80
2018-12-09T17:32:56.178Z,8.80
2018-12-09T17:35:27.177Z,8.80
2018-12-09T17:37:57.839Z,9.10
2018-12-09T17:40:29.651Z,9.00
2018-12-09T17:43:00.636Z,8.90
2018-12-09T17:45:31.427Z,8.80
2018-12-09T17:48:02.333Z,8.70
2018-12-09T17:50:33.059Z,8.80
2018-12-09T17:53:05.709Z,8.80
2018-12-09T17:55:36.511Z,8.80
2018-12-09T17:58:07.068Z,8.90
2018-12-09T18:00:40.087Z,8.90
2018-12-09T18:03:11.250Z,9.00
2018-12-09T18:05:42.174Z,9.00
2018-12-09T18:08:13.912Z,9.00
2018-12-09T18:10:44.763Z,9.00
2018-12-09T18:13:16.097Z,8.90
2018-12-09T18:15:50.657Z,8.80
2018-12-09T18:18:21.603Z,8.90
2018-12-09T18:20:52.394Z,9.00
2018-12-09T18:23:22.900Z,9.10
2018-12-09T18:25:53.728Z,9.10
2018-12-09T18:28:25.575Z,9.40
2018-12-09T18:30:57.155Z,9.30
2018-12-09T18:33:27.894Z,9.20
2018-12-09T18:35:58.658Z,9.30
2018-12-09T18:38:29.251Z,9.20
2018-12-09T18:41:00.125Z,9.10
2018-12-09T18:43:31.315Z,9.10
2018-12-09T18:46:02.883Z,9.00
2018-12-09T18:48:33.792Z,9.10
2018-12-09T18:51:04.644Z,9.10
2018-12-09T18:53:35.295Z,9.00
2018-12-09T18:56:06.400Z,9.00
2018-12-09T18:58:37.187Z,9.10
2018-12-09T19:01:07.782Z,9.00
2018-12-09T19:03:38.714Z,9.00
2018-12-09T19:06:10.369Z,9.20
2018-12-09T19:08:52.833Z,9.10
2018-12-09T19:11:23.712Z,9.00
2018-12-09T19:13:54.382Z,9.00
2018-12-09T19:16:25.050Z,9.00
2018-12-09T19:18:55.778Z,9.00
2018-12-09T19:21:26.445Z,9.00
2018-12-09T19:23:57.442Z,9.00
2018-12-09T19:26:29.512Z,9.10
2018-12-09T19:29:00.373Z,9.30
2018-12-09T19:31:31.071Z,9.40
2018-12-09T19:34:05.421Z,9.30
2018-12-09T19:36:36.840Z,9.30
2018-12-09T19:39:08.812Z,9.20
2018-12-09T19:41:41.559Z,9.10
2018-12-09T19:44:12.256Z,9.00
2018-12-09T19:46:43.235Z,9.00
2018-12-09T19:49:15.475Z,8.90
2018-12-09T19:51:46.716Z,8.90
2018-12-09T19:54:17.654Z,8.90
2018-12-09T19:56:48.431Z,8.90
2018-12-09T19:59:18.924Z,8.90
2018-12-09T20:01:49.713Z,8.80
2018-12-09T20:04:20.979Z,8.90
2018-12-09T20:06:52.704Z,8.80
2018-12-09T20:09:23.359Z,8.90
2018-12-09T20:11:54.472Z,8.90
2018-12-09T20:14:25.178Z,8.80
2018-12-09T20:16:56.346Z,8.80
2018-12-09T20:19:27.168Z,8.80
2018-12-09T20:21:57.967Z,8.90
2018-12-09T20:24:28.859Z,8.90
2018-12-09T20:26:59.424Z,8.90
2018-12-09T20:29:29.958Z,8.80
2018-12-09T20:32:01.241Z,8.80
2018-12-09T20:34:32.251Z,8.70
2018-12-09T20:37:02.813Z,8.70
2018-12-09T20:39:33.403Z,8.70
2018-12-09T20:42:04.230Z,8.70
2018-12-09T20:44:34.764Z,8.60
2018-12-09T20:47:05.393Z,8.50
2018-12-09T20:49:36.383Z,8.50
2018-12-09T20:52:07.106Z,8.40
2018-12-09T20:54:37.852Z,8.40
2018-12-09T20:57:08.645Z,8.40
2018-12-09T20:59:39.437Z,8.40
2018-12-09T21:02:10.163Z,8.30
2018-12-09T21:04:41.124Z,8.40
2018-12-09T21:07:11.944Z,8.50
2018-12-09T21:09:42.558Z,8.50
2018-12-09T21:12:13.386Z,8.40
2018-12-09T21:14:44.118Z,8.40
2018-12-09T21:17:14.908Z,8.40
2018-12-09T21:19:45.666Z,8.50
2018-12-09T21:22:16.338Z,8.40
2018-12-09T21:24:47.294Z,8.40
2018-12-09T21:27:18.063Z,8.40
2018-12-09T21:29:48.948Z,8.40
2018-12-09T21:32:19.764Z,8.40
2018-12-09T21:34:53.493Z,8.40
2018-12-09T21:37:24.436Z,8.30
2018-12-09T21:39:55.191Z,8.30
2018-12-09T21:42:26.022Z,8.30
2018-12-09T21:44:56.783Z,8.30
2018-12-09T21:47:27.480Z,8.30
2018-12-09T21:49:58.351Z,8.30
2018-12-09T21:52:29.081Z,8.30
2018-12-09T21:54:59.844Z,8.20
2018-12-09T21:57:30.594Z,8.30
2018-12-09T22:00:01.269Z,8.30
2018-12-09T22:02:32.424Z,8.30
2018-12-09T22:05:03.086Z,8.20
2018-12-09T22:07:33.807Z,8.30
2018-12-09T22:10:05.148Z,8.30
2018-12-09T22:12:36.590Z,8.30
2018-12-09T22:15:07.551Z,8.30
2018-12-09T22:17:38.401Z,8.30
2018-12-09T22:20:09.046Z,8.20
2018-12-09T22:22:39.937Z,8.30
2018-12-09T22:25:10.598Z,8.30
2018-12-09T22:27:41.545Z,8.40
2018-12-09T22:30:12.348Z,8.40
2018-12-09T22:32:43.015Z,8.40
2018-12-09T22:35:13.894Z,8.50
2018-12-09T22:37:44.444Z,8.50
2018-12-09T22:40:15.134Z,8.60
2018-12-09T22:42:45.823Z,8.60
2018-12-09T22:45:16.355Z,8.60
2018-12-09T22:47:46.906Z,8.50
2018-12-09T22:50:17.604Z,8.40
2018-12-09T22:52:48.518Z,8.40
2018-12-09T22:55:19.321Z,8.40
2018-12-09T22:57:50.121Z,8.40
2018-12-09T23:00:26.319Z,8.40
2018-12-09T23:03:05.670Z,8.50
2018-12-09T23:05:36.603Z,8.50
2018-12-09T23:08:07.330Z,8.40
2018-12-09T23:10:38.024Z,8.40
2018-12-09T23:13:09.004Z,8.50
2018-12-09T23:15:40.346Z,8.40
2018-12-09T23:18:11.007Z,8.40
2018-12-09T23:20:41.775Z,8.40
2018-12-09T23:23:12.427Z,8.30
2018-12-09T23:25:43.136Z,8.30
2018-12-09T23:28:13.752Z,8.30
2018-12-09T23:30:44.442Z,8.30
2018-12-09T23:33:15.254Z,8.30
2018-12-09T23:35:46.140Z,8.40
2018-12-09T23:38:16.629Z,8.30
2018-12-09T23:40:47.432Z,8.30
2018-12-09T23:43:18.245Z,8.30
2018-12-09T23:45:49.026Z,8.40
2018-12-09T23:48:19.955Z,8.40
2018-12-09T23:50:50.522Z,8.30
2018-12-09T23:53:21.075Z,8.30
2018-12-09T23:55:51.740Z,8.30
2018-12-09T23:58:22.582Z,8.30
